Elmwood, TN (38560)

7:19 PM CDT on March 29, 2015 (GMT -0500)
KTNBUFFA2 | | Change Station
CLOSE
Current Station
Personal Weather Station
Location: Buffalo Valley, TN
Elevation: 564 ft
Nearby Weather Stations

Elev 564 ft 36.13 °N, 85.79 °W | Updated 4 seconds ago

Mostly Cloudy
Mostly Cloudy
59.2 °F
Feels Like 59.2 °F
N
8.3
Wind Variable Wind from East
Gusts 12.1 mph

Today
High -- | Low -- °F
--% Chance of Precip.
Yesterday
High -- | Low -- °F
Precip. -- in
6:34 AM 7:02 PM
Waxing Gibbous, 75% visible
Pressure 30.08 in
Visibility 10.0 miles
Clouds Few 4100 ft
Dew Point 3 °F
Humidity 10%
Rainfall 0.00 in
Snow Depth Not available.
UV 0 out of 12
Pollen 8.50 out of 12
Air Quality Not available.
Flu Activity Not available.
METAR KSRB 300015Z AUTO 20009KT 10SM FEW041 13/M01 A3008 RMK

More Conditions Fewer Conditions

Pressure 30.08 in
Visibility 10.0 miles
Clouds Few 4100 ft
Dew Point 3 °F
Humidity 10%
Rainfall 0.00 in
Snow Depth Not available.
UV 0 out of 12
Pollen 8.50 out of 12
Air Quality Not available.
Flu Activity Not available.
METAR KSRB 300015Z AUTO 20009KT 10SM FEW041 13/M01 A3008 RMK

More Conditions Fewer Conditions

10-Day Weather Forecast

Almanac

Astronomy

Mar. 29, 2015 Rise Set
Actual Time
Civil Twilight
Nautical Twilight
Astronomical Twilight
Moon
Length of Visible Light
Length of Day
Tomorrow will be .
, % of the Moon is Illuminated

Today's Extremes

State Highs State Lows

Community

WunderPhotos

Upload Photos

1,809,386 photos uploaded!

WunderBlogs® & News

Nearby

Air Quality

  Air Quality AQ Index Pollutant
Not available.

Snow Depth

Station Depth Elevation

Earthquake Activity

City Distance Mag. Time & Date
Minimum magnitude displayed is 2.5.

Coastal Water Temperatures

Place Temperature

Stations

Nearby Weather Stations

Station Location Temp. Windchill Dew Point Humidity Wind Precip. Elev Updated Type